Time,TemperatureF,DewpointF,PressureIn,WindDirection,WindDirectionDegrees,WindSpeedMPH,WindSpeedGustMPH,Humidity,HourlyPrecipIn,Conditions,Clouds,dailyrainin,SoftwareType,DateUTC
2013-02-06 00:00:00,23.9,18.9,29.88,SE,130,0.0,1.0,81,0.00,OVC,OVC,0.17,WeatherDisplay:10.37,2013-02-06 05:00:00,
2013-02-06 00:15:00,24.3,19.3,29.88,ESE,102,0.0,0.0,81,0.00,OVC,OVC,0.00,WeatherDisplay:10.37,2013-02-06 05:15:00,
2013-02-06 00:30:00,24.1,19.1,29.88,ENE,68,0.0,0.0,81,0.00,OVC,OVC,0.00,WeatherDisplay:10.37,2013-02-06 05:30:00,
2013-02-06 00:45:00,24.1,19.1,29.88,ENE,68,0.0,0.0,81,0.00,OVC,OVC,0.00,WeatherDisplay:10.37,2013-02-06 05:45:00,
2013-02-06 01:00:00,24.1,19.1,29.88,ENE,68,0.0,0.0,81,0.00,OVC,OVC,0.00,WeatherDisplay:10.37,2013-02-06 06:00:00,
2013-02-06 01:15:00,24.1,19.1,29.88,ENE,68,0.0,0.0,81,0.00,OVC,OVC,0.00,WeatherDisplay:10.37,2013-02-06 06:15:00,
2013-02-06 01:30:00,24.1,19.4,29.88,ENE,68,0.0,0.0,82,0.00,OVC,OVC,0.00,WeatherDisplay:10.37,2013-02-06 06:30:00,
2013-02-06 01:45:00,24.1,19.4,29.87,ENE,68,0.0,0.0,82,0.00,OVC,OVC,0.00,WeatherDisplay:10.37,2013-02-06 06:45:00,
2013-02-06 02:00:00,24.1,19.4,29.87,ENE,68,0.0,0.0,82,0.00,OVC,OVC,0.00,WeatherDisplay:10.37,2013-02-06 07:00:00,
2013-02-06 02:15:00,24.1,19.4,29.87,ENE,68,0.0,0.0,82,0.00,OVC,OVC,0.00,WeatherDisplay:10.37,2013-02-06 07:15:00,
2013-02-06 02:30:00,23.9,19.2,29.87,ENE,68,0.0,0.0,82,0.00,OVC,OVC,0.00,WeatherDisplay:10.37,2013-02-06 07:30:00,
2013-02-06 02:45:00,23.9,19.2,29.87,East,81,0.0,0.0,82,0.00,OVC,OVC,0.00,WeatherDisplay:10.37,2013-02-06 07:45:00,
2013-02-06 03:00:00,23.2,18.5,29.85,East,90,0.0,0.0,82,0.00,OVC,OVC,0.00,WeatherDisplay:10.37,2013-02-06 08:00:00,
2013-02-06 03:15:00,23.2,18.5,29.85,East,90,0.0,0.0,82,0.00,OVC,OVC,0.00,WeatherDisplay:10.37,2013-02-06 08:15:00,
2013-02-06 03:30:00,23.2,18.5,29.85,East,90,0.0,0.0,82,0.00,OVC,OVC,0.00,WeatherDisplay:10.37,2013-02-06 08:30:00,
2013-02-06 03:45:00,23.2,18.5,29.85,East,90,0.0,0.0,82,0.00,OVC,OVC,0.00,WeatherDisplay:10.37,2013-02-06 08:45:00,
2013-02-06 04:00:00,23.0,18.3,29.85,East,90,0.0,0.0,82,0.00,OVC,OVC,0.00,WeatherDisplay:10.37,2013-02-06 09:00:00,
2013-02-06 04:15:00,23.0,18.6,29.85,East,90,0.0,0.0,83,0.00,OVC,OVC,0.00,WeatherDisplay:10.37,2013-02-06 09:15:00,
2013-02-06 04:30:00,23.2,18.8,29.86,East,90,0.0,0.0,83,0.00,OVC,OVC,0.00,WeatherDisplay:10.37,2013-02-06 09:30:00,
2013-02-06 04:45:00,23.2,18.8,29.86,East,90,0.0,0.0,83,0.00,OVC,OVC,0.00,WeatherDisplay:10.37,2013-02-06 09:45:00,
2013-02-06 05:00:00,23.4,19.0,29.87,East,90,0.0,0.0,83,0.00,OVC,OVC,0.00,WeatherDisplay:10.37,2013-02-06 10:00:00,
2013-02-06 05:15:00,23.4,19.0,29.87,East,90,0.0,0.0,83,0.00,OVC,OVC,0.00,WeatherDisplay:10.37,2013-02-06 10:15:00,
2013-02-06 05:30:00,23.5,19.1,29.88,East,90,0.0,0.0,83,0.00,OVC,OVC,0.00,WeatherDisplay:10.37,2013-02-06 10:30:00,
2013-02-06 05:45:00,23.5,19.1,29.88,East,90,0.0,0.0,83,0.00,OVC,OVC,0.00,WeatherDisplay:10.37,2013-02-06 10:45:00,
2013-02-06 06:00:00,23.9,19.5,29.89,East,90,0.0,0.0,83,0.00,OVC,OVC,0.00,WeatherDisplay:10.37,2013-02-06 11:00:00,
2013-02-06 06:15:00,23.9,19.5,29.89,East,90,0.0,0.0,83,0.00,OVC,OVC,0.00,WeatherDisplay:10.37,2013-02-06 11:15:00,
2013-02-06 06:30:00,23.4,19.0,29.89,East,90,0.0,0.0,83,0.00,OVC,OVC,0.00,WeatherDisplay:10.37,2013-02-06 11:30:00,
2013-02-06 06:45:00,23.4,19.0,29.91,East,90,0.0,0.0,83,0.00,OVC,OVC,0.00,WeatherDisplay:10.37,2013-02-06 11:45:00,
2013-02-06 07:00:00,22.1,17.4,29.91,East,90,0.0,0.0,82,0.00,OVC,OVC,0.00,WeatherDisplay:10.37,2013-02-06 12:00:00,
2013-02-06 07:15:00,21.6,16.9,29.91,ESE,117,0.0,1.0,82,0.00,OVC,OVC,0.00,WeatherDisplay:10.37,2013-02-06 12:15:00,
2013-02-06 07:30:00,21.7,17.4,29.91,NW,313,0.0,1.0,83,0.00,OVC,OVC,0.00,WeatherDisplay:10.37,2013-02-06 12:30:00,
2013-02-06 07:45:00,22.5,18.1,29.92,West,270,1.0,1.0,83,0.00,OVC,OVC,0.00,WeatherDisplay:10.37,2013-02-06 12:45:00,
2013-02-06 08:00:00,23.4,19.2,29.93,WNW,287,1.0,2.0,84,0.00,OVC,OVC,0.00,WeatherDisplay:10.37,2013-02-06 13:00:00,
2013-02-06 08:15:00,23.9,19.8,29.93,West,281,1.0,2.0,84,0.00,OVC,OVC,0.00,WeatherDisplay:10.37,2013-02-06 13:15:00,
2013-02-06 08:30:00,25.0,20.5,29.94,SW,231,1.0,3.0,83,0.00,OVC,OVC,0.00,WeatherDisplay:10.37,2013-02-06 13:30:00,
2013-02-06 08:45:00,25.7,21.3,29.97,West,278,1.0,3.0,83,0.00,OVC,OVC,0.00,WeatherDisplay:10.37,2013-02-06 13:45:00,
2013-02-06 09:00:00,26.4,21.7,29.98,WSW,252,1.0,4.0,82,0.00,OVC,OVC,0.00,WeatherDisplay:10.37,2013-02-06 14:00:00,
2013-02-06 09:15:00,26.8,22.0,29.98,SW,233,2.0,4.0,82,0.00,OVC,OVC,0.00,WeatherDisplay:10.37,2013-02-06 14:15:00,
2013-02-06 09:30:00,28.2,22.8,29.98,SW,233,2.0,4.0,80,0.00,OVC,OVC,0.00,WeatherDisplay:10.37,2013-02-06 14:30:00,
2013-02-06 09:45:00,28.4,23.0,30.01,West,263,1.0,3.0,80,0.00,OVC,OVC,0.00,WeatherDisplay:10.37,2013-02-06 14:45:00,
2013-02-06 10:00:00,29.3,23.3,30.01,SW,228,1.0,3.0,78,0.00,OVC,OVC,0.00,WeatherDisplay:10.37,2013-02-06 15:00:00,
2013-02-06 10:15:00,29.7,23.3,30.01,SW,220,1.0,3.0,77,0.00,OVC,OVC,0.00,WeatherDisplay:10.37,2013-02-06 15:15:00,
2013-02-06 10:30:00,30.6,23.6,30.01,South,182,2.0,5.0,75,0.00,OVC,OVC,0.00,WeatherDisplay:10.37,2013-02-06 15:30:00,
2013-02-06 10:45:00,31.8,24.1,30.02,South,176,2.0,4.0,73,0.00,OVC,OVC,0.00,WeatherDisplay:10.37,2013-02-06 15:45:00,
2013-02-06 11:00:00,33.4,24.4,30.02,SW,231,2.0,4.0,69,0.00,OVC,OVC,0.00,WeatherDisplay:10.37,2013-02-06 16:00:00,
2013-02-06 11:15:00,33.6,24.2,30.02,WSW,249,3.0,4.0,68,0.00,OVC,OVC,0.00,WeatherDisplay:10.37,2013-02-06 16:15:00,
2013-02-06 11:30:00,32.7,23.7,30.03,WNW,298,2.0,5.0,69,0.00,OVC,OVC,0.00,WeatherDisplay:10.37,2013-02-06 16:30:00,
2013-02-06 11:45:00,33.1,23.7,30.02,WNW,288,3.0,11.0,68,0.00,OVC,OVC,0.00,WeatherDisplay:10.37,2013-02-06 16:45:00,
2013-02-06 12:00:00,33.4,23.7,30.02,West,275,2.0,11.0,67,0.00,OVC,OVC,0.00,WeatherDisplay:10.37,2013-02-06 17:00:00,
2013-02-06 12:15:00,33.4,23.7,30.02,NNW,338,2.0,3.0,67,0.00,OVC,OVC,0.00,WeatherDisplay:10.37,2013-02-06 17:15:00,
2013-02-06 12:30:00,34.7,24.1,30.02,SW,223,2.0,3.0,65,0.00,OVC,OVC,0.00,WeatherDisplay:10.37,2013-02-06 17:30:00,
2013-02-06 12:45:00,34.9,24.7,30.01,South,176,2.0,6.0,66,0.00,OVC,OVC,0.00,WeatherDisplay:10.37,2013-02-06 17:45:00,
2013-02-06 13:00:00,34.9,24.7,30.02,West,273,2.0,6.0,66,0.00,OVC,OVC,0.00,WeatherDisplay:10.37,2013-02-06 18:00:00,
2013-02-06 13:15:00,34.7,24.5,30.02,North,355,2.0,6.0,66,0.00,OVC,OVC,0.00,WeatherDisplay:10.37,2013-02-06 18:15:00,
2013-02-06 13:30:00,34.5,24.7,30.02,NNE,22,2.0,6.0,67,0.00,OVC,OVC,0.00,WeatherDisplay:10.37,2013-02-06 18:30:00,
2013-02-06 13:45:00,34.2,24.7,30.02,West,259,2.0,2.0,68,0.00,OVC,OVC,0.00,WeatherDisplay:10.37,2013-02-06 18:45:00,
2013-02-06 14:00:00,34.7,23.8,30.02,East,82,2.0,2.0,64,0.00,OVC,OVC,0.00,WeatherDisplay:10.37,2013-02-06 19:00:00,
2013-02-06 14:15:00,34.3,23.4,30.02,WSW,245,2.0,5.0,64,0.00,OVC,OVC,0.00,WeatherDisplay:10.37,2013-02-06 19:15:00,
2013-02-06 14:30:00,33.6,22.4,30.00,SW,236,2.0,5.0,63,0.00,OVC,OVC,0.00,WeatherDisplay:10.37,2013-02-06 19:30:00,
2013-02-06 14:45:00,34.0,23.1,30.01,WSW,250,2.0,3.0,64,0.00,OVC,OVC,0.00,WeatherDisplay:10.37,2013-02-06 19:45:00,
2013-02-06 15:00:00,34.3,22.3,30.04,WNW,286,2.0,4.0,61,0.00,OVC,OVC,0.00,WeatherDisplay:10.37,2013-02-06 20:00:00,
2013-02-06 15:15:00,34.2,21.7,30.04,WSW,238,2.0,5.0,60,0.00,OVC,OVC,0.00,WeatherDisplay:10.37,2013-02-06 20:15:00,
2013-02-06 15:30:00,33.4,20.6,30.02,NW,308,2.0,5.0,59,0.00,OVC,OVC,0.00,WeatherDisplay:10.37,2013-02-06 20:30:00,
2013-02-06 15:45:00,33.3,20.5,30.01,WSW,237,1.0,2.0,59,0.00,OVC,OVC,0.00,WeatherDisplay:10.37,2013-02-06 20:45:00,
2013-02-06 16:00:00,32.9,18.9,30.06,SW,227,2.0,8.0,56,0.00,OVC,OVC,0.00,WeatherDisplay:10.37,2013-02-06 21:00:00,
2013-02-06 16:15:00,32.7,18.7,30.06,SSW,212,2.0,8.0,56,0.00,OVC,OVC,0.00,WeatherDisplay:10.37,2013-02-06 21:15:00,
2013-02-06 16:30:00,32.0,16.3,30.01,SW,230,3.0,8.0,52,0.00,OVC,OVC,0.00,WeatherDisplay:10.37,2013-02-06 21:30:00,
2013-02-06 16:45:00,31.8,15.7,30.01,North,349,2.0,3.0,51,0.00,OVC,OVC,0.00,WeatherDisplay:10.37,2013-02-06 21:45:00,
2013-02-06 17:07:00,31.1,15.1,30.03,West,270,2.4,0.0,51,0.00,OVC,,0.00,WeatherDisplay:10.37,2013-02-06 22:07:00,
2013-02-06 17:08:00,30.7,15.2,30.03,West,270,2.4,3.5,52,0.00,OVC,,0.00,WeatherDisplay:10.37,2013-02-06 22:08:00,
2013-02-06 17:11:00,30.6,15.0,30.03,WSW,248,1.8,3.5,52,0.00,OVC,,0.00,WeatherDisplay:10.37,2013-02-06 22:11:00,
2013-02-06 17:16:00,30.6,14.1,30.03,SW,225,2.1,6.9,50,0.00,OVC,,0.00,WeatherDisplay:10.37,2013-02-06 22:16:00,
2013-02-06 17:21:00,30.4,13.5,30.04,WNW,292,2.6,4.6,49,0.00,OVC,,0.00,WeatherDisplay:10.37,2013-02-06 22:21:00,
2013-02-06 17:26:00,30.0,13.6,30.04,NE,45,2.0,2.3,50,0.00,OVC,,0.00,WeatherDisplay:10.37,2013-02-06 22:26:00,
2013-02-06 17:31:00,29.8,13.0,30.04,WSW,248,2.0,10.4,49,0.00,OVC,,0.00,WeatherDisplay:10.37,2013-02-06 22:31:00,
2013-02-06 17:36:00,30.0,12.7,30.06,NW,315,2.9,5.8,48,0.00,OVC,,0.00,WeatherDisplay:10.37,2013-02-06 22:36:00,
2013-02-06 17:41:00,30.0,12.7,30.06,WNW,292,3.5,4.6,48,0.00,OVC,,0.00,WeatherDisplay:10.37,2013-02-06 22:41:00,
2013-02-06 17:46:00,29.7,12.3,30.06,NNW,338,2.8,2.8,48,0.00,OVC,,0.00,WeatherDisplay:10.37,2013-02-06 22:46:00,
2013-02-06 17:51:00,29.3,12.0,30.06,NE,45,2.1,2.3,48,0.00,OVC,,0.00,WeatherDisplay:10.37,2013-02-06 22:51:00,
2013-02-06 17:56:00,29.3,11.5,30.06,WNW,292,2.2,6.9,47,0.00,OVC,,0.00,WeatherDisplay:10.37,2013-02-06 22:56:00,
2013-02-06 18:01:00,29.1,11.8,30.08,SW,225,2.1,2.3,48,0.00,CLR,,0.00,WeatherDisplay:10.37,2013-02-06 23:01:00,
2013-02-06 18:06:00,28.9,11.7,30.08,North,0,2.0,2.3,48,0.00,CLR,,0.00,WeatherDisplay:10.37,2013-02-06 23:06:00,
2013-02-06 18:11:00,28.9,11.7,30.08,WNW,292,1.5,1.5,48,0.00,CLR,,0.00,WeatherDisplay:10.37,2013-02-06 23:11:00,
2013-02-06 18:16:00,28.4,11.6,30.08,NW,315,1.5,1.5,49,0.00,CLR,,0.00,WeatherDisplay:10.37,2013-02-06 23:16:00,
2013-02-06 18:21:00,28.2,11.5,30.15,NW,315,1.3,2.3,49,0.00,CLR,,0.00,WeatherDisplay:10.37,2013-02-06 23:21:00,
2013-02-06 18:26:00,28.2,11.9,30.15,North,0,1.0,2.3,50,0.00,CLR,,0.00,WeatherDisplay:10.37,2013-02-06 23:26:00,
2013-02-06 18:31:00,27.9,11.6,30.15,SSW,202,0.8,3.5,50,0.00,CLR,,0.00,WeatherDisplay:10.37,2013-02-06 23:31:00,
2013-02-06 18:36:00,27.9,11.6,30.15,WNW,292,0.8,1.1,50,0.00,CLR,,0.00,WeatherDisplay:10.37,2013-02-06 23:36:00,
2013-02-06 18:41:00,27.7,11.4,30.11,WNW,292,1.1,1.3,50,0.00,CLR,,0.00,WeatherDisplay:10.37,2013-02-06 23:41:00,
2013-02-06 18:46:00,27.9,11.6,30.11,West,270,1.1,2.3,50,0.00,CLR,,0.00,WeatherDisplay:10.37,2013-02-06 23:46:00,
2013-02-06 18:51:00,27.5,10.8,30.11,WSW,248,1.1,1.1,49,0.00,CLR,,0.00,WeatherDisplay:10.37,2013-02-06 23:51:00,
2013-02-06 18:56:00,27.5,11.3,30.11,NW,315,0.8,2.3,50,0.00,CLR,,0.00,WeatherDisplay:10.37,2013-02-06 23:56:00,
2013-02-06 19:01:00,27.0,11.2,30.12,NNW,338,0.3,0.0,51,0.00,CLR,,0.00,WeatherDisplay:10.37,2013-02-07 00:01:00,
2013-02-06 19:06:00,26.8,11.5,30.12,NNW,338,0.5,2.3,52,0.00,CLR,,0.00,WeatherDisplay:10.37,2013-02-07 00:06:00,
2013-02-06 19:11:00,26.8,11.5,30.12,WSW,248,1.0,2.5,52,0.00,CLR,,0.00,WeatherDisplay:10.37,2013-02-07 00:11:00,
2013-02-06 19:16:00,26.8,11.0,30.12,NE,45,1.5,2.3,51,0.00,CLR,,0.00,WeatherDisplay:10.37,2013-02-07 00:16:00,
2013-02-06 19:21:00,26.8,10.6,30.13,NNE,22,1.6,3.5,50,0.00,CLR,,0.00,WeatherDisplay:10.37,2013-02-07 00:21:00,
2013-02-06 19:26:00,26.8,10.1,30.13,West,270,2.0,4.9,49,0.00,CLR,,0.00,WeatherDisplay:10.37,2013-02-07 00:26:00,
2013-02-06 19:31:00,26.8,10.1,30.13,WNW,292,2.1,3.5,49,0.00,CLR,,0.00,WeatherDisplay:10.37,2013-02-07 00:31:00,
2013-02-06 19:36:00,26.8,10.1,30.13,WNW,292,2.1,2.3,49,0.00,CLR,,0.00,WeatherDisplay:10.37,2013-02-07 00:36:00,
2013-02-06 19:41:00,26.4,9.8,30.14,SW,225,2.0,2.3,49,0.00,CLR,,0.00,WeatherDisplay:10.37,2013-02-07 00:41:00,
2013-02-06 19:46:00,26.4,10.3,30.14,SW,225,2.3,2.3,50,0.00,CLR,,0.00,WeatherDisplay:10.37,2013-02-07 00:46:00,
2013-02-06 19:51:00,26.2,9.6,30.14,WSW,248,2.4,3.5,49,0.00,CLR,,0.00,WeatherDisplay:10.37,2013-02-07 00:51:00,
2013-02-06 19:56:00,26.1,9.0,30.14,WNW,292,2.0,2.3,48,0.00,CLR,,0.00,WeatherDisplay:10.37,2013-02-07 00:56:00,
2013-02-06 20:01:00,26.2,8.7,30.15,NNW,338,2.0,3.5,47,0.00,CLR,,0.00,WeatherDisplay:10.37,2013-02-07 01:01:00,
2013-02-06 20:06:00,26.1,8.6,30.15,SW,225,2.2,2.3,47,0.00,CLR,,0.00,WeatherDisplay:10.37,2013-02-07 01:06:00,
2013-02-06 20:11:00,26.1,8.6,30.15,NNW,338,2.1,3.5,47,0.00,CLR,,0.00,WeatherDisplay:10.37,2013-02-07 01:11:00,
2013-02-06 20:16:00,26.1,8.6,30.15,NNE,22,1.8,3.5,47,0.00,CLR,,0.00,WeatherDisplay:10.37,2013-02-07 01:16:00,
2013-02-06 20:21:00,25.7,8.2,30.16,WNW,292,2.0,2.3,47,0.00,CLR,,0.00,WeatherDisplay:10.37,2013-02-07 01:21:00,
2013-02-06 20:26:00,25.7,8.2,30.16,NW,315,2.0,3.5,47,0.00,CLR,,0.00,WeatherDisplay:10.37,2013-02-07 01:26:00,
2013-02-06 20:31:00,25.3,7.9,30.16,NNE,22,1.5,3.5,47,0.00,CLR,,0.00,WeatherDisplay:10.37,2013-02-07 01:31:00,
2013-02-06 20:36:00,25.0,7.6,30.16,ENE,68,1.1,0.0,47,0.00,CLR,,0.00,WeatherDisplay:10.37,2013-02-07 01:36:00,
2013-02-06 20:41:00,25.0,7.6,30.16,SE,135,1.3,2.3,47,0.00,CLR,,0.00,WeatherDisplay:10.37,2013-02-07 01:41:00,
2013-02-06 20:46:00,25.0,7.6,30.16,NE,45,1.1,0.0,47,0.00,CLR,,0.00,WeatherDisplay:10.37,2013-02-07 01:46:00,
2013-02-06 20:51:00,25.0,7.1,30.16,NNW,338,1.5,5.8,46,0.00,CLR,,0.00,WeatherDisplay:10.37,2013-02-07 01:51:00,
2013-02-06 20:56:00,24.8,7.4,30.16,NNE,22,1.7,0.0,47,0.00,CLR,,0.00,WeatherDisplay:10.37,2013-02-07 01:56:00,
2013-02-06 21:01:00,24.6,7.2,30.18,NE,45,1.6,1.6,47,0.00,CLR,,0.00,WeatherDisplay:10.37,2013-02-07 02:01:00,
2013-02-06 21:06:00,24.6,6.8,30.18,WNW,292,1.6,5.8,46,0.00,CLR,,0.00,WeatherDisplay:10.37,2013-02-07 02:06:00,
2013-02-06 21:11:00,24.6,6.8,30.18,WNW,292,1.7,3.5,46,0.00,CLR,,0.00,WeatherDisplay:10.37,2013-02-07 02:11:00,
2013-02-06 21:16:00,24.6,6.8,30.18,NW,315,1.3,3.5,46,0.00,CLR,,0.00,WeatherDisplay:10.37,2013-02-07 02:16:00,
2013-02-06 21:21:00,24.4,6.1,30.19,NW,315,1.4,2.3,45,0.00,CLR,,0.00,WeatherDisplay:10.37,2013-02-07 02:21:00,
2013-02-06 21:26:00,24.3,6.4,30.19,NW,315,1.1,0.0,46,0.00,CLR,,0.00,WeatherDisplay:10.37,2013-02-07 02:26:00,
2013-02-06 21:31:00,23.9,6.1,30.19,SW,225,0.7,2.3,46,0.00,CLR,,0.00,WeatherDisplay:10.37,2013-02-07 02:31:00,
2013-02-06 21:36:00,23.9,6.1,30.19,NW,315,1.1,3.5,46,0.00,CLR,,0.00,WeatherDisplay:10.37,2013-02-07 02:36:00,
2013-02-06 21:41:00,23.9,6.1,30.20,West,270,1.5,2.3,46,0.00,CLR,,0.00,WeatherDisplay:10.37,2013-02-07 02:41:00,
2013-02-06 21:46:00,23.9,6.6,30.20,NNW,338,1.3,1.3,47,0.00,CLR,,0.00,WeatherDisplay:10.37,2013-02-07 02:46:00,
2013-02-06 21:51:00,23.7,5.9,30.20,NW,315,1.5,4.6,46,0.00,CLR,,0.00,WeatherDisplay:10.37,2013-02-07 02:51:00,
2013-02-06 21:56:00,23.9,6.1,30.20,West,270,1.3,2.3,46,0.00,CLR,,0.00,WeatherDisplay:10.37,2013-02-07 02:56:00,
2013-02-06 22:01:00,23.9,6.1,30.21,NNE,22,1.5,3.5,46,0.00,CLR,,0.00,WeatherDisplay:10.37,2013-02-07 03:01:00,
2013-02-06 22:06:00,23.4,6.1,30.21,NNW,338,1.7,1.7,47,0.00,CLR,,0.00,WeatherDisplay:10.37,2013-02-07 03:06:00,
2013-02-06 22:11:00,23.2,6.4,30.21,WNW,292,1.1,2.3,48,0.00,CLR,,0.00,WeatherDisplay:10.37,2013-02-07 03:11:00,
2013-02-06 22:16:00,23.2,6.8,30.21,NW,315,0.9,0.0,49,0.00,CLR,,0.00,WeatherDisplay:10.37,2013-02-07 03:16:00,
2013-02-06 22:21:00,23.2,6.4,30.22,NW,315,0.8,1.1,48,0.00,CLR,,0.00,WeatherDisplay:10.37,2013-02-07 03:21:00,
2013-02-06 22:26:00,23.2,6.4,30.22,NNW,338,1.1,1.1,48,0.00,CLR,,0.00,WeatherDisplay:10.37,2013-02-07 03:26:00,
2013-02-06 22:31:00,23.2,5.9,30.22,ESE,112,1.6,2.3,47,0.00,CLR,,0.00,WeatherDisplay:10.37,2013-02-07 03:31:00,
2013-02-06 22:36:00,23.2,6.4,30.22,NW,315,1.3,1.3,48,0.00,CLR,,0.00,WeatherDisplay:10.37,2013-02-07 03:36:00,
2013-02-06 22:41:00,22.8,6.0,30.22,WNW,292,1.4,3.5,48,0.00,CLR,,0.00,WeatherDisplay:10.37,2013-02-07 03:41:00,
2013-02-06 22:46:00,22.8,6.0,30.22,SSW,202,1.3,3.5,48,0.00,CLR,,0.00,WeatherDisplay:10.37,2013-02-07 03:46:00,
2013-02-06 22:51:00,22.8,5.6,30.22,WNW,292,2.0,6.9,47,0.00,CLR,,0.00,WeatherDisplay:10.37,2013-02-07 03:51:00,
2013-02-06 22:56:00,22.8,6.0,30.22,SSE,158,2.5,2.5,48,0.00,CLR,,0.00,WeatherDisplay:10.37,2013-02-07 03:56:00,
2013-02-06 23:01:00,22.6,5.9,30.22,NW,315,1.6,1.6,48,0.00,CLR,,0.00,WeatherDisplay:10.37,2013-02-07 04:01:00,
2013-02-06 23:06:00,22.5,5.2,30.22,WNW,292,0.9,4.6,47,0.00,CLR,,0.00,WeatherDisplay:10.37,2013-02-07 04:06:00,
2013-02-06 23:11:00,22.5,5.7,30.22,NW,315,0.8,0.0,48,0.00,CLR,,0.00,WeatherDisplay:10.37,2013-02-07 04:11:00,
2013-02-06 23:17:00,22.1,5.4,30.22,NNW,338,0.9,1.1,48,0.00,CLR,,0.00,WeatherDisplay:10.37,2013-02-07 04:17:00,
2013-02-06 23:22:00,21.9,5.7,30.23,WSW,248,0.6,4.6,49,0.00,CLR,,0.00,WeatherDisplay:10.37,2013-02-07 04:22:00,
2013-02-06 23:27:00,21.9,5.7,30.23,NNE,22,0.8,2.3,49,0.00,CLR,,0.00,WeatherDisplay:10.37,2013-02-07 04:27:00,
2013-02-06 23:32:00,21.9,5.7,30.23,SW,225,1.1,0.0,49,0.00,CLR,,0.00,WeatherDisplay:10.37,2013-02-07 04:32:00,
2013-02-06 23:37:00,21.7,5.9,30.23,NNE,22,0.9,1.1,50,0.00,CLR,,0.00,WeatherDisplay:10.37,2013-02-07 04:37:00,
2013-02-06 23:42:00,21.7,5.5,30.23,NW,315,0.6,1.1,49,0.00,CLR,,0.00,WeatherDisplay:10.37,2013-02-07 04:42:00,
2013-02-06 23:47:00,21.7,5.9,30.23,WSW,248,0.8,1.1,50,0.00,CLR,,0.00,WeatherDisplay:10.37,2013-02-07 04:47:00,
2013-02-06 23:52:00,21.7,5.9,30.23,NNW,338,0.7,1.1,50,0.00,CLR,,0.00,WeatherDisplay:10.37,2013-02-07 04:52:00,
2013-02-06 23:57:00,21.4,5.6,30.24,NNE,22,1.0,1.1,50,0.00,CLR,,0.00,WeatherDisplay:10.37,2013-02-07 04:57:00,